Time;durP1;ratioP1;P1;durP2;ratioP2;P2;SDS_P1;SDS_P2;PMS_P1;PMS_P2;Temp;Humidity;BMP_temperature;BMP_pressure;BME280_temperature;BME280_humidity;BME280_pressure;Samples;Min_cycle;Max_cycle;Signal;HPM_P1;HPM_P2
2021/04/21 00:02:14;0.00;0.00;0.62;0.00;0.00;0.62;2.90;2.17;;;27.20;23.70;;;;;;2264678;61;20355;-61
2021/04/21 00:04:42;0.00;0.00;0.62;0.00;0.00;0.62;2.90;2.23;;;27.20;23.70;;;;;;2265096;61;20358;-61
2021/04/21 00:07:09;0.00;0.00;0.62;0.00;0.00;0.62;2.10;1.90;;;27.20;23.70;;;;;;2265558;61;20359;-60
2021/04/21 00:09:37;0.00;0.00;0.62;0.00;0.00;0.62;2.30;2.10;;;27.20;23.70;;;;;;2264834;61;20357;-60
2021/04/21 00:12:06;0.00;0.00;0.62;0.00;0.00;0.62;2.83;2.37;;;27.20;23.70;;;;;;2265438;61;20359;-62
2021/04/21 00:14:34;0.00;0.00;0.62;0.00;0.00;0.62;2.77;2.17;;;27.20;23.70;;;;;;2265287;61;20370;-65
2021/04/21 00:17:03;0.00;0.00;0.62;0.00;0.00;0.62;2.90;2.17;;;27.20;23.70;;;;;;2264526;61;20409;-63
2021/04/21 00:19:34;0.00;0.00;0.62;0.00;0.00;0.62;2.87;1.90;;;27.20;23.70;;;;;;2265553;61;20358;-62
2021/04/21 00:22:03;0.00;0.00;0.62;0.00;0.00;0.62;2.87;2.10;;;27.20;23.80;;;;;;2265690;61;20417;-61
2021/04/21 00:24:31;0.00;0.00;0.62;0.00;0.00;0.62;5.67;2.50;;;27.20;23.80;;;;;;2264568;61;20602;-62
2021/04/21 00:26:58;0.00;0.00;0.62;0.00;0.00;0.62;3.03;1.83;;;27.20;23.80;;;;;;2265461;61;20355;-64
2021/04/21 00:29:27;0.00;0.00;0.62;0.00;0.00;0.62;2.57;2.20;;;27.20;23.80;;;;;;2265551;61;20378;-65
2021/04/21 00:31:57;0.00;0.00;0.62;0.00;0.00;0.62;2.40;2.20;;;27.10;23.70;;;;;;2264627;61;20386;-62
2021/04/21 00:34:25;0.00;0.00;0.62;0.00;0.00;0.62;3.50;1.90;;;27.10;23.80;;;;;;2264877;61;20390;-64
2021/04/21 00:36:56;0.00;0.00;0.62;0.00;0.00;0.62;4.00;2.77;;;27.10;23.70;;;;;;2265415;61;20361;-64
2021/04/21 00:39:24;0.00;0.00;0.62;0.00;0.00;0.62;3.50;2.40;;;27.10;23.60;;;;;;2264530;61;20355;-62
2021/04/21 00:42:01;0.00;0.00;0.62;0.00;0.00;0.62;3.90;2.50;;;27.20;23.60;;;;;;2265324;61;20347;-62
2021/04/21 00:44:40;0.00;0.00;0.62;0.00;0.00;0.62;3.50;2.20;;;27.10;23.40;;;;;;2265454;61;20382;-62
2021/04/21 00:47:15;0.00;0.00;0.62;0.00;0.00;0.62;3.30;2.50;;;27.10;23.40;;;;;;2264121;61;20358;-62
2021/04/21 00:49:50;0.00;0.00;0.62;0.00;0.00;0.62;3.30;2.80;;;27.10;23.40;;;;;;2265464;61;20362;-63
2021/04/21 00:52:26;0.00;0.00;0.62;0.00;0.00;0.62;4.50;2.87;;;27.00;23.30;;;;;;2265246;61;20358;-62
2021/04/21 00:55:02;0.00;0.00;0.62;0.00;0.00;0.62;3.87;3.10;;;27.00;23.30;;;;;;2265499;61;20373;-63
2021/04/21 00:57:42;0.00;0.00;0.62;0.00;0.00;0.62;2.60;2.40;;;27.00;23.30;;;;;;2265618;61;20350;-63
2021/04/21 01:00:13;0.00;0.00;0.62;0.00;0.00;0.62;4.20;2.77;;;27.00;23.30;;;;;;2265801;61;20361;-62
2021/04/21 01:03:10;0.00;0.00;0.62;0.00;0.00;0.62;6.83;3.60;;;26.90;23.30;;;;;;2265851;61;20390;-63
2021/04/21 01:05:41;0.00;0.00;0.62;0.00;0.00;0.62;3.13;2.83;;;26.90;23.30;;;;;;2266155;61;20479;-62
2021/04/21 01:08:13;0.00;0.00;0.62;0.00;0.00;0.62;4.57;2.93;;;26.90;23.30;;;;;;2265626;61;20625;-62
2021/04/21 01:10:46;0.00;0.00;0.62;0.00;0.00;0.62;3.87;2.70;;;26.90;23.30;;;;;;2265291;61;20355;-62
2021/04/21 01:13:14;0.00;0.00;0.62;0.00;0.00;0.62;4.07;2.83;;;26.80;23.20;;;;;;2265538;61;20397;-62
2021/04/21 01:15:42;0.00;0.00;0.62;0.00;0.00;0.62;3.90;2.83;;;26.80;23.20;;;;;;2264921;61;20679;-62
2021/04/21 01:18:11;0.00;0.00;0.62;0.00;0.00;0.62;3.70;3.30;;;26.80;23.20;;;;;;2265836;61;20608;-62
2021/04/21 01:20:45;0.00;0.00;0.62;0.00;0.00;0.62;4.00;3.07;;;26.80;23.20;;;;;;2266071;61;20445;-63
2021/04/21 01:23:44;0.00;0.00;0.62;0.00;0.00;0.62;3.47;3.10;;;26.70;23.20;;;;;;2265396;61;20458;-62
2021/04/21 01:26:29;0.00;0.00;0.62;0.00;0.00;0.62;2.80;2.50;;;26.70;23.20;;;;;;2266155;61;20655;-62
2021/04/21 01:29:00;0.00;0.00;0.62;0.00;0.00;0.62;3.27;2.97;;;26.70;23.20;;;;;;2266207;61;20465;-63
2021/04/21 01:31:32;0.00;0.00;0.62;0.00;0.00;0.62;3.93;2.80;;;26.60;23.10;;;;;;2265112;61;20593;-62
2021/04/21 01:34:01;0.00;0.00;0.62;0.00;0.00;0.62;3.50;2.73;;;26.60;23.10;;;;;;2266011;61;20393;-62
2021/04/21 01:36:30;0.00;0.00;0.62;0.00;0.00;0.62;3.93;3.00;;;26.60;23.10;;;;;;2265869;61;20397;-62
2021/04/21 01:39:02;0.00;0.00;0.62;0.00;0.00;0.62;3.37;3.07;;;26.60;23.10;;;;;;2265087;61;20382;-62
2021/04/21 01:41:38;0.00;0.00;0.62;0.00;0.00;0.62;3.90;3.17;;;26.50;23.00;;;;;;2265876;61;20735;-62
2021/04/21 01:44:10;0.00;0.00;0.62;0.00;0.00;0.62;3.40;3.00;;;26.50;23.00;;;;;;2265824;61;20378;-62
2021/04/21 01:46:41;0.00;0.00;0.62;0.00;0.00;0.62;4.00;3.33;;;26.50;23.00;;;;;;2265428;61;20362;-62
2021/04/21 01:49:44;0.00;0.00;0.62;0.00;0.00;0.62;3.60;3.30;;;26.50;23.00;;;;;;2265955;61;20715;-62
2021/04/21 01:52:25;0.00;0.00;0.62;0.00;0.00;0.62;3.73;3.20;;;26.40;23.00;;;;;;2265160;61;20674;-62
2021/04/21 01:54:58;0.00;0.00;0.62;0.00;0.00;0.62;3.70;3.37;;;26.40;23.00;;;;;;2265675;61;20713;-63
2021/04/21 01:57:34;0.00;0.00;0.62;0.00;0.00;0.62;3.63;3.33;;;26.40;23.50;;;;;;2265866;61;20355;-63
2021/04/21 02:00:09;0.00;0.00;0.62;0.00;0.00;0.62;4.30;2.97;;;26.40;23.00;;;;;;2265241;61;20590;-62
2021/04/21 02:02:45;0.00;0.00;0.62;0.00;0.00;0.62;3.80;3.40;;;26.30;22.90;;;;;;2265019;61;20390;-63
2021/04/21 02:05:23;0.00;0.00;0.62;0.00;0.00;0.62;4.00;3.13;;;26.30;22.90;;;;;;2265883;61;20484;-63
2021/04/21 02:08:05;0.00;0.00;0.62;0.00;0.00;0.62;3.50;3.10;;;26.30;22.90;;;;;;2265208;61;20375;-63
2021/04/21 02:10:47;0.00;0.00;0.62;0.00;0.00;0.62;5.77;3.30;;;26.20;22.90;;;;;;2265781;61;20358;-63
2021/04/21 02:13:31;0.00;0.00;0.62;0.00;0.00;0.62;5.93;3.33;;;26.20;22.90;;;;;;2265877;61;20391;-63
2021/04/21 02:16:19;0.00;0.00;0.62;0.00;0.00;0.62;5.00;3.57;;;26.20;22.90;;;;;;2264918;61;20400;-63
2021/04/21 02:19:09;0.00;0.00;0.62;0.00;0.00;0.62;3.20;2.90;;;26.20;22.90;;;;;;2265788;61;20699;-63
2021/04/21 02:21:48;0.00;0.00;0.62;0.00;0.00;0.62;3.33;2.93;;;26.20;22.90;;;;;;2265560;61;20362;-63
2021/04/21 02:24:30;0.00;0.00;0.62;0.00;0.00;0.62;3.57;3.23;;;26.10;22.80;;;;;;2265652;61;20599;-62
2021/04/21 02:27:07;0.00;0.00;0.62;0.00;0.00;0.62;3.57;3.23;;;26.10;22.80;;;;;;2265311;61;20397;-62
2021/04/21 02:29:40;0.00;0.00;0.62;0.00;0.00;0.62;4.50;3.40;;;26.10;22.80;;;;;;2265148;61;20392;-62
2021/04/21 02:32:18;0.00;0.00;0.62;0.00;0.00;0.62;3.33;2.97;;;26.00;22.80;;;;;;2265568;61;20362;-62
2021/04/21 02:34:56;0.00;0.00;0.62;0.00;0.00;0.62;3.77;3.00;;;26.00;22.80;;;;;;2265784;61;20358;-63
2021/04/21 02:37:29;0.00;0.00;0.62;0.00;0.00;0.62;4.93;3.43;;;26.00;22.80;;;;;;2264707;61;20354;-62
2021/04/21 02:40:11;0.00;0.00;0.62;0.00;0.00;0.62;3.83;2.97;;;26.00;22.80;;;;;;2265623;61;20363;-63
2021/04/21 02:42:48;0.00;0.00;0.62;0.00;0.00;0.62;5.63;3.30;;;26.00;22.80;;;;;;2265667;61;20378;-62
2021/04/21 02:45:26;0.00;0.00;0.62;0.00;0.00;0.62;3.90;3.20;;;25.90;22.70;;;;;;2264979;61;20373;-62
2021/04/21 02:48:00;0.00;0.00;0.62;0.00;0.00;0.62;5.17;3.50;;;25.90;22.70;;;;;;2265678;61;20384;-62
2021/04/21 02:50:34;0.00;0.00;0.62;0.00;0.00;0.62;3.70;3.30;;;25.90;22.70;;;;;;2265307;61;20355;-62
2021/04/21 02:53:11;0.00;0.00;0.62;0.00;0.00;0.62;2.87;2.67;;;25.90;22.70;;;;;;2264933;61;20602;-62
2021/04/21 02:56:16;0.00;0.00;0.62;0.00;0.00;0.62;3.83;3.40;;;25.80;22.70;;;;;;2265220;61;20351;-62
2021/04/21 02:58:52;0.00;0.00;0.62;0.00;0.00;0.62;4.93;3.30;;;25.80;22.70;;;;;;2264999;61;20351;-62
2021/04/21 03:01:25;0.00;0.00;0.62;0.00;0.00;0.62;4.43;3.10;;;25.80;22.70;;;;;;2265384;61;20609;-62
2021/04/21 03:04:03;0.00;0.00;0.62;0.00;0.00;0.62;3.87;3.47;;;25.70;22.60;;;;;;2265657;61;20374;-62
2021/04/21 03:06:35;0.00;0.00;0.62;0.00;0.00;0.62;3.33;3.03;;;25.70;22.60;;;;;;2265082;61;20438;-62
2021/04/21 03:09:06;0.00;0.00;0.62;0.00;0.00;0.62;3.30;3.00;;;25.70;22.60;;;;;;2265020;61;20612;-63
2021/04/21 03:11:33;0.00;0.00;0.62;0.00;0.00;0.62;3.93;3.50;;;25.70;22.60;;;;;;2265654;61;20400;-62
2021/04/21 03:14:14;0.00;0.00;0.62;0.00;0.00;0.62;3.70;3.33;;;25.70;22.60;;;;;;2264451;61;20382;-63
2021/04/21 03:16:45;0.00;0.00;0.62;0.00;0.00;0.62;4.40;2.70;;;25.70;22.60;;;;;;2265336;61;20354;-63
2021/04/21 03:19:18;0.00;0.00;0.62;0.00;0.00;0.62;4.00;3.00;;;25.60;22.60;;;;;;2265660;61;20358;-63
2021/04/21 03:21:51;0.00;0.00;0.62;0.00;0.00;0.62;3.80;2.73;;;25.60;22.60;;;;;;2264868;61;20382;-63
2021/04/21 03:24:22;0.00;0.00;0.62;0.00;0.00;0.62;4.43;3.33;;;25.60;22.60;;;;;;2265492;61;20598;-63
2021/04/21 03:26:52;0.00;0.00;0.62;0.00;0.00;0.62;3.33;3.00;;;25.60;22.60;;;;;;2265645;61;20349;-62
2021/04/21 03:29:25;0.00;0.00;0.62;0.00;0.00;0.62;3.70;2.93;;;25.50;22.50;;;;;;2264916;61;20504;-62
2021/04/21 03:31:54;0.00;0.00;0.62;0.00;0.00;0.62;3.90;3.00;;;25.50;22.50;;;;;;2265513;61;20353;-63
2021/04/21 03:34:25;0.00;0.00;0.62;0.00;0.00;0.62;2.97;2.63;;;25.50;22.50;;;;;;2265034;61;20386;-63
2021/04/21 03:36:53;0.00;0.00;0.62;0.00;0.00;0.62;3.83;3.20;;;25.50;22.50;;;;;;2264745;61;20678;-63
2021/04/21 03:39:20;0.00;0.00;0.62;0.00;0.00;0.62;3.90;2.47;;;25.50;22.50;;;;;;2265530;61;20359;-63
2021/04/21 03:41:47;0.00;0.00;0.62;0.00;0.00;0.62;3.57;2.90;;;25.50;22.50;;;;;;2265481;61;20351;-63
2021/04/21 03:44:13;0.00;0.00;0.62;0.00;0.00;0.62;3.50;3.13;;;25.40;22.50;;;;;;2264764;61;20502;-63
2021/04/21 03:46:42;0.00;0.00;0.62;0.00;0.00;0.62;3.63;3.30;;;25.40;22.50;;;;;;2265720;61;20362;-63
2021/04/21 03:49:10;0.00;0.00;0.62;0.00;0.00;0.62;3.07;2.77;;;25.40;22.50;;;;;;2265557;61;20389;-63
2021/04/21 03:51:39;0.00;0.00;0.62;0.00;0.00;0.62;3.23;2.93;;;25.40;22.50;;;;;;2264689;61;20715;-63
2021/04/21 03:54:06;0.00;0.00;0.62;0.00;0.00;0.62;3.03;2.80;;;25.40;22.50;;;;;;2265532;61;20408;-64
2021/04/21 03:56:36;0.00;0.00;0.62;0.00;0.00;0.62;3.70;2.40;;;25.30;22.40;;;;;;2265594;61;20361;-63
2021/04/21 03:59:04;0.00;0.00;0.62;0.00;0.00;0.62;3.20;2.80;;;25.30;22.40;;;;;;2264512;61;20435;-63
2021/04/21 04:01:34;0.00;0.00;0.62;0.00;0.00;0.62;5.30;2.93;;;25.30;22.40;;;;;;2265463;61;20461;-63
2021/04/21 04:04:05;0.00;0.00;0.62;0.00;0.00;0.62;4.13;3.20;;;25.30;22.40;;;;;;2265540;61;20841;-63
2021/04/21 04:06:40;0.00;0.00;0.62;0.00;0.00;0.62;3.23;2.80;;;25.20;22.40;;;;;;2264672;61;20605;-63
2021/04/21 04:09:09;0.00;0.00;0.62;0.00;0.00;0.62;5.13;3.03;;;25.20;22.40;;;;;;2264992;61;20469;-63
2021/04/21 04:11:43;0.00;0.00;0.62;0.00;0.00;0.62;3.50;2.97;;;25.20;22.40;;;;;;2265426;61;20651;-63
2021/04/21 04:14:17;0.00;0.00;0.62;0.00;0.00;0.62;4.07;3.40;;;25.20;22.40;;;;;;2264652;61;20379;-63
2021/04/21 04:16:46;0.00;0.00;0.62;0.00;0.00;0.62;3.60;3.10;;;25.20;22.40;;;;;;2265418;61;20429;-63
2021/04/21 04:19:13;0.00;0.00;0.62;0.00;0.00;0.62;3.17;2.87;;;25.20;22.40;;;;;;2265278;61;20755;-63
2021/04/21 04:21:43;0.00;0.00;0.62;0.00;0.00;0.62;2.87;2.67;;;25.10;22.30;;;;;;2264547;61;20398;-63
2021/04/21 04:24:14;0.00;0.00;0.62;0.00;0.00;0.62;3.43;3.13;;;25.10;22.30;;;;;;2265331;61;20761;-63
2021/04/21 04:26:43;0.00;0.00;0.62;0.00;0.00;0.62;3.27;2.83;;;25.10;22.30;;;;;;2265206;61;20769;-63
2021/04/21 04:29:10;0.00;0.00;0.62;0.00;0.00;0.62;2.83;2.60;;;25.10;22.30;;;;;;2264197;61;20382;-62
2021/04/21 04:31:39;0.00;0.00;0.62;0.00;0.00;0.62;3.60;3.17;;;25.10;22.30;;;;;;2265374;61;20358;-62
2021/04/21 04:34:08;0.00;0.00;0.62;0.00;0.00;0.62;3.90;3.20;;;25.10;22.30;;;;;;2265326;61;20601;-62
2021/04/21 04:36:37;0.00;0.00;0.62;0.00;0.00;0.62;4.60;2.83;;;25.00;22.30;;;;;;2264524;61;20355;-63
2021/04/21 04:39:08;0.00;0.00;0.62;0.00;0.00;0.62;4.57;3.20;;;25.00;22.30;;;;;;2265279;61;20351;-62
2021/04/21 04:41:37;0.00;0.00;0.62;0.00;0.00;0.62;3.90;3.00;;;25.00;22.30;;;;;;2265336;61;20363;-62
2021/04/21 04:44:06;0.00;0.00;0.62;0.00;0.00;0.62;3.40;3.07;;;25.00;22.30;;;;;;2264656;61;20374;-64
2021/04/21 04:46:43;0.00;0.00;0.62;0.00;0.00;0.62;3.53;2.90;;;25.00;22.30;;;;;;2265557;61;20701;-65
2021/04/21 04:49:15;0.00;0.00;0.62;0.00;0.00;0.62;3.60;3.10;;;25.00;22.30;;;;;;2265077;61;20385;-65
2021/04/21 04:51:45;0.00;0.00;0.62;0.00;0.00;0.62;3.70;3.17;;;24.90;22.20;;;;;;2264766;61;20588;-64
2021/04/21 04:54:14;0.00;0.00;0.62;0.00;0.00;0.62;4.13;3.00;;;24.90;22.20;;;;;;2261575;61;20461;-64
2021/04/21 04:56:45;0.00;0.00;0.62;0.00;0.00;0.62;4.00;3.27;;;24.90;22.20;;;;;;2265163;61;20367;-64
2021/04/21 04:59:13;0.00;0.00;0.62;0.00;0.00;0.62;4.13;3.50;;;24.90;22.20;;;;;;2264741;61;20440;-65
2021/04/21 05:01:50;0.00;0.00;0.62;0.00;0.00;0.62;4.93;3.30;;;24.90;22.20;;;;;;2265211;61;20362;-63
2021/04/21 05:04:22;0.00;0.00;0.62;0.00;0.00;0.62;3.87;3.10;;;24.90;22.20;;;;;;2265273;61;20611;-64
2021/04/21 05:06:59;0.00;0.00;0.62;0.00;0.00;0.62;6.27;3.83;;;24.90;22.20;;;;;;2264997;61;20354;-67
2021/04/21 05:09:30;0.00;0.00;0.62;0.00;0.00;0.62;5.37;4.13;;;24.80;22.10;;;;;;2265365;61;20613;-65
2021/04/21 05:11:58;0.00;0.00;0.62;0.00;0.00;0.62;6.00;4.00;;;24.80;22.10;;;;;;2264841;61;20438;-63
2021/04/21 05:14:25;0.00;0.00;0.62;0.00;0.00;0.62;3.73;3.40;;;24.80;22.10;;;;;;2265072;61;20379;-64
2021/04/21 05:18:10;0.00;0.00;0.62;0.00;0.00;0.62;4.50;4.10;;;24.80;22.10;;;;;;2265211;61;20553;-62
2021/04/21 05:21:18;0.00;0.00;0.62;0.00;0.00;0.62;5.57;3.93;;;24.80;22.10;;;;;;2262626;61;20806;-62
2021/04/21 05:24:51;0.00;0.00;0.62;0.00;0.00;0.62;5.30;3.83;;;24.70;22.00;;;;;;2265340;61;20374;-63
2021/04/21 05:28:11;0.00;0.00;0.62;0.00;0.00;0.62;5.07;4.40;;;24.70;22.00;;;;;;2264863;61;20365;-62
2021/04/21 05:31:19;0.00;0.00;0.62;0.00;0.00;0.62;3.47;3.17;;;24.70;22.00;;;;;;2265217;61;20443;-60
2021/04/21 05:34:49;0.00;0.00;0.62;0.00;0.00;0.62;5.33;3.63;;;24.70;22.00;;;;;;2265197;61;20394;-63
2021/04/21 05:38:01;0.00;0.00;0.62;0.00;0.00;0.62;5.30;3.80;;;24.70;22.00;;;;;;2265218;61;20644;-61
2021/04/21 05:41:05;0.00;0.00;0.62;0.00;0.00;0.62;4.50;3.47;;;24.60;22.00;;;;;;2265966;61;20362;-62
2021/04/21 05:44:56;0.00;0.00;0.62;0.00;0.00;0.62;4.50;3.50;;;24.70;22.00;;;;;;2265293;61;20378;-61
2021/04/21 05:47:58;0.00;0.00;0.62;0.00;0.00;0.62;4.77;4.10;;;24.60;22.00;;;;;;2266024;61;20380;-65
2021/04/21 05:51:20;0.00;0.00;0.62;0.00;0.00;0.62;4.23;3.60;;;24.60;22.00;;;;;;2265050;61;20437;-63
2021/04/21 05:54:31;0.00;0.00;0.62;0.00;0.00;0.62;4.00;3.70;;;24.60;22.00;;;;;;2264159;61;20390;-66
2021/04/21 05:57:19;0.00;0.00;0.62;0.00;0.00;0.62;4.03;3.67;;;24.60;22.00;;;;;;2265164;61;20404;-62
2021/04/21 06:00:20;0.00;0.00;0.62;0.00;0.00;0.62;3.73;3.30;;;24.50;21.90;;;;;;2265842;61;20394;-65
2021/04/21 06:02:49;0.00;0.00;0.62;0.00;0.00;0.62;4.80;3.70;;;24.50;21.90;;;;;;2268636;61;20400;-63
2021/04/21 06:05:16;0.00;0.00;0.62;0.00;0.00;0.62;3.80;3.40;;;24.50;21.90;;;;;;2265142;61;20363;-63
2021/04/21 06:07:44;0.00;0.00;0.62;0.00;0.00;0.62;3.80;3.43;;;24.60;22.00;;;;;;2265987;61;20355;-61
2021/04/21 06:10:27;0.00;0.00;0.62;0.00;0.00;0.62;3.80;3.43;;;24.50;21.90;;;;;;2265836;61;20373;-65
2021/04/21 06:12:57;0.00;0.00;0.62;0.00;0.00;0.62;4.03;3.53;;;24.50;22.10;;;;;;2265150;61;20377;-66
2021/04/21 06:15:27;0.00;0.00;0.62;0.00;0.00;0.62;3.50;2.90;;;24.50;22.10;;;;;;2265925;61;20381;-63
2021/04/21 06:17:58;0.00;0.00;0.62;0.00;0.00;0.62;6.67;3.57;;;24.50;22.20;;;;;;2265668;61;20588;-63
2021/04/21 06:20:30;0.00;0.00;0.62;0.00;0.00;0.62;3.27;2.80;;;24.60;22.30;;;;;;2265225;61;20370;-65
2021/04/21 06:23:04;0.00;0.00;0.62;0.00;0.00;0.62;3.60;2.83;;;24.60;22.30;;;;;;2265842;61;20397;-63
2021/04/21 06:25:31;0.00;0.00;0.62;0.00;0.00;0.62;3.73;3.27;;;24.60;22.20;;;;;;2265722;61;20680;-67
2021/04/21 06:28:11;0.00;0.00;0.62;0.00;0.00;0.62;3.23;2.63;;;24.60;22.30;;;;;;2265360;61;20378;-65
2021/04/21 06:30:38;0.00;0.00;0.62;0.00;0.00;0.62;3.60;3.27;;;24.60;22.30;;;;;;2265764;61;20362;-63
2021/04/21 06:33:08;0.00;0.00;0.62;0.00;0.00;0.62;3.53;3.07;;;24.60;22.20;;;;;;2265514;61;20793;-65
2021/04/21 06:35:36;0.00;0.00;0.62;0.00;0.00;0.62;4.53;2.73;;;24.60;22.30;;;;;;2265309;61;20763;-64
2021/04/21 06:38:04;0.00;0.00;0.62;0.00;0.00;0.62;2.77;2.47;;;24.60;22.20;;;;;;2265720;61;20389;-66
2021/04/21 06:40:32;0.00;0.00;0.62;0.00;0.00;0.62;3.37;3.07;;;24.60;22.20;;;;;;2265436;61;20598;-66
2021/04/21 06:42:59;0.00;0.00;0.62;0.00;0.00;0.62;3.37;2.73;;;24.60;22.30;;;;;;2265345;61;20374;-65
2021/04/21 06:45:28;0.00;0.00;0.62;0.00;0.00;0.62;4.13;3.20;;;24.60;22.30;;;;;;2265792;61;20397;-64
2021/04/21 06:47:56;0.00;0.00;0.62;0.00;0.00;0.62;2.97;2.67;;;24.60;22.30;;;;;;2265456;61;20385;-64
2021/04/21 06:50:30;0.00;0.00;0.62;0.00;0.00;0.62;3.50;3.10;;;24.60;22.30;;;;;;2265233;61;20358;-63
2021/04/21 06:53:03;0.00;0.00;0.62;0.00;0.00;0.62;3.13;2.80;;;24.60;22.30;;;;;;2265773;61;20383;-67
2021/04/21 06:55:32;0.00;0.00;0.62;0.00;0.00;0.62;4.00;2.70;;;24.60;22.30;;;;;;2265220;61;20699;-66
2021/04/21 06:57:59;0.00;0.00;0.62;0.00;0.00;0.62;2.83;2.53;;;24.70;22.40;;;;;;2265426;61;20355;-64
2021/04/21 07:00:28;0.00;0.00;0.62;0.00;0.00;0.62;4.70;2.70;;;24.70;22.40;;;;;;2265501;61;20355;-65
2021/04/21 07:03:00;0.00;0.00;0.62;0.00;0.00;0.62;4.03;2.63;;;24.70;22.30;;;;;;2265172;61;20371;-67
2021/04/21 07:05:31;0.00;0.00;0.62;0.00;0.00;0.62;2.63;2.40;;;24.70;22.40;;;;;;2265566;61;20358;-65
2021/04/21 07:08:05;0.00;0.00;0.62;0.00;0.00;0.62;5.07;2.23;;;24.70;22.30;;;;;;2265734;61;20774;-64
2021/04/21 07:10:33;0.00;0.00;0.62;0.00;0.00;0.62;2.60;2.40;;;24.70;22.40;;;;;;2265097;61;20393;-64
2021/04/21 07:13:01;0.00;0.00;0.62;0.00;0.00;0.62;3.50;2.40;;;24.70;22.30;;;;;;2265414;61;20397;-67
2021/04/21 07:15:30;0.00;0.00;0.62;0.00;0.00;0.62;3.67;2.43;;;24.70;22.30;;;;;;2265659;61;20358;-65
2021/04/21 07:17:58;0.00;0.00;0.62;0.00;0.00;0.62;3.07;2.73;;;24.70;22.30;;;;;;2265064;61;20370;-63
2021/04/21 07:20:25;0.00;0.00;0.62;0.00;0.00;0.62;3.20;2.23;;;24.70;22.30;;;;;;2265446;61;20351;-65
2021/04/21 07:22:53;0.00;0.00;0.62;0.00;0.00;0.62;3.00;2.70;;;24.70;22.40;;;;;;2265612;61;20385;-64
2021/04/21 07:25:21;0.00;0.00;0.62;0.00;0.00;0.62;2.50;2.30;;;24.70;22.40;;;;;;2265331;61;20542;-64
2021/04/21 07:27:53;0.00;0.00;0.62;0.00;0.00;0.62;4.37;2.60;;;24.70;22.40;;;;;;2265369;61;20355;-64
2021/04/21 07:30:32;0.00;0.00;0.62;0.00;0.00;0.62;2.50;2.30;;;24.70;22.40;;;;;;2265297;61;20350;-66
2021/04/21 07:33:00;0.00;0.00;0.62;0.00;0.00;0.62;2.53;2.30;;;24.80;22.50;;;;;;2264866;61;20390;-66
2021/04/21 07:35:29;0.00;0.00;0.62;0.00;0.00;0.62;2.57;2.03;;;24.80;22.50;;;;;;2264655;61;20359;-67
2021/04/21 07:37:58;0.00;0.00;0.62;0.00;0.00;0.62;2.90;2.30;;;24.80;22.40;;;;;;2264764;61;20362;-63
2021/04/21 07:40:30;0.00;0.00;0.62;0.00;0.00;0.62;2.47;2.13;;;24.80;22.40;;;;;;2264499;61;20359;-64
2021/04/21 07:43:12;0.00;0.00;0.62;0.00;0.00;0.62;2.83;2.23;;;24.80;22.40;;;;;;2264658;61;20374;-64
2021/04/21 07:45:50;0.00;0.00;0.62;0.00;0.00;0.62;2.60;2.40;;;24.80;22.40;;;;;;2265726;61;20399;-65
2021/04/21 07:48:49;0.00;0.00;0.62;0.00;0.00;0.62;2.30;2.10;;;24.80;22.50;;;;;;2265186;61;20374;-68
2021/04/21 07:51:48;0.00;0.00;0.62;0.00;0.00;0.62;3.10;2.77;;;24.80;22.50;;;;;;2265546;61;20607;-61
2021/04/21 07:54:24;0.00;0.00;0.62;0.00;0.00;0.62;3.63;2.30;;;24.90;22.50;;;;;;2265458;61;20462;-63
2021/04/21 07:57:09;0.00;0.00;0.62;0.00;0.00;0.62;3.50;2.73;;;24.90;22.50;;;;;;2264876;61;20354;-64
2021/04/21 07:59:40;0.00;0.00;0.62;0.00;0.00;0.62;2.60;2.23;;;24.90;22.50;;;;;;2265536;61;20710;-65
2021/04/21 08:02:14;0.00;0.00;0.62;0.00;0.00;0.62;2.60;2.13;;;24.90;22.50;;;;;;2264853;61;20595;-65
2021/04/21 08:04:50;0.00;0.00;0.62;0.00;0.00;0.62;4.30;2.40;;;24.90;22.50;;;;;;2265228;61;20682;-64
2021/04/21 08:07:42;0.00;0.00;0.62;0.00;0.00;0.62;2.70;2.50;;;24.90;22.50;;;;;;2265660;61;20361;-66
2021/04/21 08:10:25;0.00;0.00;0.62;0.00;0.00;0.62;2.83;2.50;;;24.90;22.50;;;;;;2263424;61;20374;-65
2021/04/21 08:12:54;0.00;0.00;0.62;0.00;0.00;0.62;2.43;2.20;;;24.90;22.50;;;;;;2265333;61;20428;-64
2021/04/21 08:15:28;0.00;0.00;0.62;0.00;0.00;0.62;2.57;2.20;;;24.90;22.50;;;;;;2265432;61;20361;-64
2021/04/21 08:17:58;0.00;0.00;0.62;0.00;0.00;0.62;3.30;2.23;;;24.90;22.60;;;;;;2264710;61;20706;-63
2021/04/21 08:20:32;0.00;0.00;0.62;0.00;0.00;0.62;3.07;2.40;;;24.90;22.60;;;;;;2265561;61;20729;-67
2021/04/21 08:23:01;0.00;0.00;0.62;0.00;0.00;0.62;2.87;2.17;;;25.00;22.60;;;;;;2265480;61;20385;-66
2021/04/21 08:25:29;0.00;0.00;0.62;0.00;0.00;0.62;4.07;2.50;;;25.00;22.60;;;;;;2264694;61;20358;-67
2021/04/21 08:27:57;0.00;0.00;0.62;0.00;0.00;0.62;2.97;2.57;;;25.00;22.60;;;;;;2265480;61;20358;-66
2021/04/21 08:30:25;0.00;0.00;0.62;0.00;0.00;0.62;2.17;1.97;;;25.00;22.60;;;;;;2265575;61;20359;-65
2021/04/21 08:32:52;0.00;0.00;0.62;0.00;0.00;0.62;2.53;2.27;;;25.00;22.60;;;;;;2264081;61;20726;-62
2021/04/21 08:35:18;0.00;0.00;0.62;0.00;0.00;0.62;2.70;2.50;;;25.00;22.60;;;;;;2265521;61;20363;-66
2021/04/21 08:37:46;0.00;0.00;0.62;0.00;0.00;0.62;5.27;2.83;;;25.00;22.60;;;;;;2265383;61;20732;-65
2021/04/21 08:40:18;0.00;0.00;0.62;0.00;0.00;0.62;3.20;2.27;;;25.10;22.60;;;;;;2264623;61;20354;-66
2021/04/21 08:42:56;0.00;0.00;0.62;0.00;0.00;0.62;2.37;2.17;;;25.10;22.60;;;;;;2265473;61;20604;-66
2021/04/21 08:45:23;0.00;0.00;0.62;0.00;0.00;0.62;2.30;2.10;;;25.10;22.60;;;;;;2265386;61;20381;-62
2021/04/21 08:47:50;0.00;0.00;0.62;0.00;0.00;0.62;2.93;2.63;;;25.10;22.60;;;;;;2264709;61;20370;-65
2021/04/21 08:50:17;0.00;0.00;0.62;0.00;0.00;0.62;2.43;1.90;;;25.10;22.60;;;;;;2265492;61;20358;-64
2021/04/21 08:52:50;0.00;0.00;0.62;0.00;0.00;0.62;4.00;2.60;;;25.10;22.60;;;;;;2265273;61;20405;-66
2021/04/21 08:55:18;0.00;0.00;0.62;0.00;0.00;0.62;2.90;2.23;;;25.10;22.60;;;;;;2264693;61;20656;-67
2021/04/21 08:57:46;0.00;0.00;0.62;0.00;0.00;0.62;2.47;2.03;;;25.10;22.60;;;;;;2265448;61;20358;-65
2021/04/21 09:00:15;0.00;0.00;0.62;0.00;0.00;0.62;2.43;2.23;;;25.10;22.60;;;;;;2265334;61;20416;-64
2021/04/21 09:02:43;0.00;0.00;0.62;0.00;0.00;0.62;2.20;2.00;;;25.20;22.70;;;;;;2264562;61;20374;-63
2021/04/21 09:05:12;0.00;0.00;0.62;0.00;0.00;0.62;3.10;2.00;;;25.20;22.60;;;;;;2264921;61;20401;-62
2021/04/21 09:07:39;0.00;0.00;0.62;0.00;0.00;0.62;2.60;2.20;;;25.20;22.60;;;;;;2265650;61;20359;-65
2021/04/21 09:10:08;0.00;0.00;0.62;0.00;0.00;0.62;3.00;2.03;;;25.20;22.60;;;;;;2264701;61;20586;-65
2021/04/21 09:12:35;0.00;0.00;0.62;0.00;0.00;0.62;2.43;2.10;;;25.20;22.60;;;;;;2265687;61;20460;-61
2021/04/21 09:15:03;0.00;0.00;0.62;0.00;0.00;0.62;2.10;1.90;;;25.20;22.60;;;;;;2266034;61;20616;-63
2021/04/21 09:17:30;0.00;0.00;0.62;0.00;0.00;0.62;2.33;2.10;;;25.30;22.70;;;;;;2265390;61;20610;-63
2021/04/21 09:19:58;0.00;0.00;0.62;0.00;0.00;0.62;2.37;2.17;;;25.30;22.70;;;;;;2265888;61;20393;-61
2021/04/21 09:22:25;0.00;0.00;0.62;0.00;0.00;0.62;2.60;2.40;;;25.30;22.60;;;;;;2265984;61;20350;-65
2021/04/21 09:24:57;0.00;0.00;0.62;0.00;0.00;0.62;2.30;2.10;;;25.30;22.70;;;;;;2265429;61;20683;-63
2021/04/21 09:27:35;0.00;0.00;0.62;0.00;0.00;0.62;2.37;2.07;;;25.40;22.70;;;;;;2266026;61;20392;-64
2021/04/21 09:30:16;0.00;0.00;0.62;0.00;0.00;0.62;2.77;2.20;;;25.40;22.70;;;;;;2266190;61;20417;-63
2021/04/21 09:32:46;0.00;0.00;0.62;0.00;0.00;0.62;2.40;2.00;;;25.40;22.70;;;;;;2265307;61;20617;-66
2021/04/21 09:35:23;0.00;0.00;0.62;0.00;0.00;0.62;3.00;2.70;;;25.40;22.70;;;;;;2265993;61;20584;-63
2021/04/21 09:37:53;0.00;0.00;0.62;0.00;0.00;0.62;2.93;2.10;;;25.40;22.70;;;;;;2265879;61;20698;-67
2021/04/21 09:40:38;0.00;0.00;0.62;0.00;0.00;0.62;2.20;2.00;;;25.50;22.70;;;;;;2268194;61;20722;-64
2021/04/21 09:43:08;0.00;0.00;0.62;0.00;0.00;0.62;2.33;1.83;;;25.50;22.70;;;;;;2265474;61;20425;-64
2021/04/21 09:45:39;0.00;0.00;0.62;0.00;0.00;0.62;2.13;1.93;;;25.50;22.70;;;;;;2265432;61;20751;-63
2021/04/21 09:48:16;0.00;0.00;0.62;0.00;0.00;0.62;2.40;2.17;;;25.50;22.70;;;;;;2265662;61;20381;-65
2021/04/21 09:50:55;0.00;0.00;0.62;0.00;0.00;0.62;3.30;2.37;;;25.60;22.60;;;;;;2265971;61;20382;-61
2021/04/21 09:53:28;0.00;0.00;0.62;0.00;0.00;0.62;2.47;2.20;;;25.60;22.60;;;;;;2265413;61;20374;-64
2021/04/21 09:56:07;0.00;0.00;0.62;0.00;0.00;0.62;2.40;2.10;;;25.60;22.60;;;;;;2265679;61;20362;-63
2021/04/21 09:58:36;0.00;0.00;0.62;0.00;0.00;0.62;2.50;2.30;;;25.60;22.60;;;;;;2265930;61;20429;-64
2021/04/21 10:01:22;0.00;0.00;0.62;0.00;0.00;0.62;2.40;2.10;;;25.70;22.60;;;;;;2265178;61;20350;-62
2021/04/21 10:04:14;0.00;0.00;0.62;0.00;0.00;0.62;2.20;2.00;;;25.70;22.60;;;;;;2265777;61;20379;-63
2021/04/21 10:06:47;0.00;0.00;0.62;0.00;0.00;0.62;2.47;1.80;;;25.70;22.60;;;;;;2266066;61;20354;-62
2021/04/21 10:09:30;0.00;0.00;0.62;0.00;0.00;0.62;2.47;2.23;;;25.80;22.70;;;;;;2264633;61;20374;-67
2021/04/21 10:12:19;0.00;0.00;0.62;0.00;0.00;0.62;2.47;2.17;;;25.80;22.70;;;;;;2265851;61;20574;-65
2021/04/21 10:14:49;0.00;0.00;0.62;0.00;0.00;0.62;2.30;2.07;;;25.80;22.70;;;;;;2265861;61;20372;-63